ソルトレイクシティ の空港の天気 - METARとTAF

ソルト・レーク・シティ国際空港 ( KSLC / SLC ) - アメリカ ユタ州ソルトレイクシティ
飛行場実況気象(Metar)
観測時間05/28 16:54 MDT (05/28 22:54 UTC)
風向・風速南東 2m/s
視程10km以上
天気現象
少しの雲 雲底高度 1980m
少しの雲 雲底高度 2590m
全天の4割程度の雲 雲底高度 3960m
気温18.9℃
湿度45%
気圧1003.3hPa
METARKSLC 282254Z 13004KT 10SM FEW065 FEW085 SCT130 19/07 A2976 RMK AO2 SLP033 T01890067
過去の天気等 Google飛行場航空写真 Wunderground天気予報

過去48時間のMETAR

飛行場予報(TAF)
発表時間: 5/28 14:58 MDT (5/28 20:58 UTC)
予報対象時間: 28日15時 MDT ~ 29日18時 MDT
風向・風速北西 4m/s
視程10km以上
少しの雲 雲底高度 300m
全天の4割程度の雲 雲底高度 910m
全天の8割程度の雲 雲底高度 1370m
28日19時 MDT から
風向・風速北西 3m/s
視程10km以上
全天の4割程度の雲 雲底高度 1220m
28日22時 MDT から
風向・風速南 4m/s
視程10km以上
全天の4割程度の雲 雲底高度 1220m
全天の4割程度の雲 雲底高度 1520m
29日3時 MDT から
風向・風速西北西 5m/s
視程10km以上
天気現象弱い雨
全天の4割程度の雲 雲底高度 460m
全天の8割程度の雲 雲底高度 910m
29日6時 MDT から
風向・風速西北西 5m/s
視程10km以上
天気現象周辺でしゅう雨
全天の4割程度の雲 雲底高度 1070m
全天の8割程度の雲 雲底高度 1520m
KSLC 282058Z 2821/2924 32007KT P6SM FEW010 SCT030 BKN045
FM290100 31006KT P6SM SCT040
FM290400 18008KT P6SM SCT040 SCT050
FM290900 30009KT 6SM -RA SCT015 BKN030
FM291200 29010KT P6SM VCSH SCT035 BKN050